createdAt,value
2023-03-21T00:02:24.274Z,19.27
2023-03-21T00:04:54.936Z,19.00
2023-03-21T00:07:22.931Z,17.73
2023-03-21T00:09:51.496Z,18.77
2023-03-21T00:12:21.032Z,19.17
2023-03-21T00:14:48.941Z,19.58
2023-03-21T00:17:17.489Z,18.73
2023-03-21T00:19:46.254Z,17.30
2023-03-21T00:22:14.296Z,18.02
2023-03-21T00:24:42.091Z,17.80
2023-03-21T00:27:39.328Z,18.17
2023-03-21T00:29:59.131Z,19.67
2023-03-21T00:32:27.601Z,18.95
2023-03-21T00:35:11.933Z,18.52
2023-03-21T00:37:43.862Z,18.85
2023-03-21T00:40:25.334Z,19.75
2023-03-21T00:42:55.696Z,20.92
2023-03-21T00:45:25.025Z,20.55
2023-03-21T00:47:53.067Z,19.83
2023-03-21T00:50:21.147Z,19.58
2023-03-21T00:52:49.225Z,19.38
2023-03-21T00:55:19.337Z,18.63
2023-03-21T00:57:56.218Z,17.92
2023-03-21T01:00:30.976Z,19.35
2023-03-21T01:03:11.132Z,19.27
2023-03-21T01:06:00.668Z,18.63
2023-03-21T01:08:38.191Z,19.08
2023-03-21T01:11:14.861Z,18.40
2023-03-21T01:13:53.705Z,19.33
2023-03-21T01:16:27.211Z,19.92
2023-03-21T01:18:56.072Z,20.10
2023-03-21T01:21:24.256Z,20.05
2023-03-21T01:23:52.089Z,19.55
2023-03-21T01:26:19.957Z,18.25
2023-03-21T01:28:48.014Z,19.45
2023-03-21T01:31:17.580Z,20.60
2023-03-21T01:33:47.548Z,19.30
2023-03-21T01:36:22.439Z,20.13
2023-03-21T01:38:53.372Z,19.27
2023-03-21T01:41:33.628Z,20.45
2023-03-21T01:44:16.877Z,19.55
2023-03-21T01:46:57.004Z,22.85
2023-03-21T01:49:50.818Z,22.65
2023-03-21T01:52:36.402Z,22.38
2023-03-21T01:55:11.674Z,22.80
2023-03-21T01:58:03.882Z,23.95
2023-03-21T02:00:38.651Z,22.27
2023-03-21T02:03:35.060Z,21.90
2023-03-21T02:06:47.411Z,22.08
2023-03-21T02:09:40.830Z,20.97
2023-03-21T02:12:16.285Z,21.85
2023-03-21T02:17:28.251Z,21.60
2023-03-21T02:20:30.820Z,23.50
2023-03-21T02:23:48.803Z,23.65
2023-03-21T02:26:41.982Z,22.23
2023-03-21T02:29:32.996Z,24.10
2023-03-21T02:32:22.582Z,23.58
2023-03-21T02:35:21.095Z,22.67
2023-03-21T02:38:00.545Z,23.08
2023-03-21T02:40:36.270Z,24.60
2023-03-21T02:43:22.194Z,25.40
2023-03-21T02:45:55.630Z,24.77
2023-03-21T02:48:38.137Z,22.50
2023-03-21T02:51:17.319Z,24.35
2023-03-21T02:54:02.104Z,25.42
2023-03-21T02:56:40.299Z,23.95
2023-03-21T02:59:09.583Z,24.80
2023-03-21T03:01:38.353Z,22.80
2023-03-21T03:04:19.531Z,26.05
2023-03-21T03:07:07.839Z,25.33
2023-03-21T03:09:49.016Z,25.70
2023-03-21T03:12:24.255Z,25.20
2023-03-21T03:15:03.869Z,26.58
2023-03-21T03:17:44.436Z,26.23
2023-03-21T03:20:21.647Z,25.50
2023-03-21T03:22:56.483Z,26.80
2023-03-21T03:25:42.090Z,27.40
2023-03-21T03:28:15.506Z,26.08
2023-03-21T03:30:57.166Z,26.88
2023-03-21T03:33:37.115Z,27.30
2023-03-21T03:36:09.422Z,27.65
2023-03-21T03:38:40.346Z,27.67
2023-03-21T03:41:15.328Z,28.20
2023-03-21T03:43:52.313Z,27.85
2023-03-21T03:46:28.045Z,26.33
2023-03-21T03:48:59.406Z,28.35
2023-03-21T03:51:33.543Z,27.25
2023-03-21T03:54:14.058Z,26.77
2023-03-21T03:56:44.378Z,25.15
2023-03-21T03:59:12.582Z,25.23
2023-03-21T04:01:55.598Z,24.52
2023-03-21T04:04:28.571Z,25.80
2023-03-21T04:06:58.151Z,24.33
2023-03-21T04:09:41.248Z,25.02
2023-03-21T04:12:14.154Z,25.55
2023-03-21T04:14:48.187Z,25.35
2023-03-21T04:17:18.600Z,24.75
2023-03-21T04:19:46.670Z,23.80
2023-03-21T04:22:14.749Z,24.13
2023-03-21T04:27:15.510Z,23.65
2023-03-21T04:29:48.549Z,24.20
2023-03-21T04:32:26.799Z,22.95
2023-03-21T04:35:10.636Z,24.70
2023-03-21T04:37:40.242Z,24.52
2023-03-21T04:40:17.824Z,24.20
2023-03-21T04:42:48.946Z,24.42
2023-03-21T04:45:17.606Z,24.83
2023-03-21T04:47:46.893Z,25.23
2023-03-21T04:50:15.906Z,23.73
2023-03-21T04:52:44.325Z,23.53
2023-03-21T04:55:12.245Z,23.10
2023-03-21T04:57:40.416Z,24.65
2023-03-21T05:00:13.024Z,23.65
2023-03-21T05:02:41.109Z,23.88
2023-03-21T05:05:11.365Z,22.50
2023-03-21T05:10:08.856Z,22.27
2023-03-21T05:12:36.995Z,21.85
2023-03-21T05:15:05.540Z,20.88
2023-03-21T05:17:34.797Z,21.55
2023-03-21T05:20:05.667Z,22.83
2023-03-21T05:22:40.348Z,21.83
2023-03-21T05:25:12.260Z,23.15
2023-03-21T05:28:09.555Z,21.58
2023-03-21T05:30:37.830Z,22.80
2023-03-21T05:33:07.032Z,22.20
2023-03-21T05:35:36.208Z,23.02
2023-03-21T05:38:06.928Z,23.55
2023-03-21T05:40:48.063Z,21.15
2023-03-21T05:43:15.863Z,21.40
2023-03-21T05:45:44.248Z,20.23
2023-03-21T05:48:13.773Z,20.27
2023-03-21T05:50:59.808Z,21.17
2023-03-21T05:53:28.094Z,20.42
2023-03-21T05:55:56.315Z,21.30
2023-03-21T05:58:40.600Z,20.35
2023-03-21T06:01:08.808Z,19.70
2023-03-21T06:03:40.503Z,20.08
2023-03-21T06:06:14.638Z,20.13
2023-03-21T06:09:08.529Z,19.90
2023-03-21T06:11:39.828Z,20.10
2023-03-21T06:14:30.691Z,19.15
2023-03-21T06:17:17.881Z,20.25
2023-03-21T06:19:58.392Z,20.45
2023-03-21T06:22:30.828Z,20.55
2023-03-21T06:24:58.974Z,21.20
2023-03-21T06:27:27.979Z,20.70
2023-03-21T06:29:58.026Z,20.35
2023-03-21T06:32:27.285Z,20.02
2023-03-21T06:35:02.153Z,21.60
2023-03-21T06:37:29.932Z,19.10
2023-03-21T06:39:58.006Z,18.88
2023-03-21T06:42:26.392Z,19.20
2023-03-21T06:45:00.314Z,18.95
2023-03-21T06:47:28.962Z,18.67
2023-03-21T06:49:57.372Z,17.23
2023-03-21T06:52:26.660Z,18.00
2023-03-21T06:54:54.939Z,19.48
2023-03-21T06:57:22.917Z,18.58
2023-03-21T06:59:51.773Z,18.10
2023-03-21T07:02:21.858Z,16.77
2023-03-21T07:05:10.675Z,18.02
2023-03-21T07:07:39.864Z,19.67
2023-03-21T07:12:45.915Z,18.38
2023-03-21T07:15:26.317Z,19.50
2023-03-21T07:17:54.350Z,18.63
2023-03-21T07:20:22.206Z,20.17
2023-03-21T07:22:51.522Z,18.92
2023-03-21T07:25:20.541Z,18.67
2023-03-21T07:27:49.412Z,18.08
2023-03-21T07:30:18.196Z,19.30
2023-03-21T07:32:47.680Z,18.95
2023-03-21T07:35:18.544Z,18.38
2023-03-21T07:37:46.384Z,18.33
2023-03-21T07:40:18.975Z,19.15
2023-03-21T07:42:49.637Z,18.25
2023-03-21T07:45:28.901Z,18.08
2023-03-21T07:47:56.712Z,19.40
2023-03-21T07:50:25.144Z,18.02
2023-03-21T07:52:52.956Z,18.38
2023-03-21T07:55:22.577Z,17.77
2023-03-21T07:57:51.537Z,17.42
2023-03-21T08:00:23.034Z,17.67
2023-03-21T08:02:57.921Z,17.33
2023-03-21T08:05:30.894Z,17.38
2023-03-21T08:07:58.683Z,16.13
2023-03-21T08:10:28.246Z,15.23
2023-03-21T08:12:56.264Z,14.95
2023-03-21T08:15:24.317Z,14.52
2023-03-21T08:17:52.156Z,14.75
2023-03-21T08:20:21.954Z,15.20
2023-03-21T08:22:50.432Z,14.52
2023-03-21T08:25:21.696Z,14.52
2023-03-21T08:27:52.372Z,13.68
2023-03-21T08:30:22.193Z,14.15
2023-03-21T08:32:50.983Z,14.18
2023-03-21T08:35:20.641Z,14.32
2023-03-21T08:37:48.795Z,14.50
2023-03-21T08:40:18.885Z,12.73
2023-03-21T08:42:47.535Z,14.73
2023-03-21T08:45:18.494Z,14.95
2023-03-21T08:47:46.750Z,13.68
2023-03-21T08:50:17.148Z,13.10
2023-03-21T08:55:14.142Z,13.43
2023-03-21T08:57:42.116Z,13.00
2023-03-21T09:00:13.955Z,13.32
2023-03-21T09:02:43.437Z,13.15
2023-03-21T09:05:12.865Z,13.13
2023-03-21T09:07:41.617Z,12.32
2023-03-21T09:10:22.365Z,12.95
2023-03-21T09:12:51.684Z,12.77
2023-03-21T09:15:21.642Z,12.35
2023-03-21T09:17:53.268Z,12.32
2023-03-21T09:20:26.177Z,13.90
2023-03-21T09:22:54.941Z,13.27
2023-03-21T09:25:23.667Z,13.30
2023-03-21T09:27:51.838Z,11.70
2023-03-21T09:30:23.730Z,12.75
2023-03-21T09:32:55.750Z,12.45
2023-03-21T09:37:52.593Z,12.85
2023-03-21T09:40:25.607Z,13.25
2023-03-21T09:43:05.957Z,11.80
2023-03-21T09:48:20.056Z,11.20
2023-03-21T09:50:48.493Z,12.95
2023-03-21T09:53:27.078Z,12.07
2023-03-21T09:55:54.995Z,13.30
2023-03-21T09:58:28.481Z,12.75
2023-03-21T10:01:05.274Z,12.05
2023-03-21T10:03:36.356Z,13.02
2023-03-21T10:06:11.379Z,12.38
2023-03-21T10:08:42.227Z,12.88
2023-03-21T10:11:16.994Z,13.57
2023-03-21T10:13:49.483Z,13.80
2023-03-21T10:16:22.511Z,12.98
2023-03-21T10:18:52.342Z,14.82
2023-03-21T10:21:51.282Z,14.13
2023-03-21T10:24:15.725Z,15.65
2023-03-21T10:26:45.017Z,16.10
2023-03-21T10:29:16.684Z,14.38
2023-03-21T10:31:46.181Z,14.70
2023-03-21T10:34:19.775Z,16.35
2023-03-21T10:36:48.303Z,16.73
2023-03-21T10:39:25.552Z,16.20
2023-03-21T10:41:53.325Z,17.10
2023-03-21T10:44:22.491Z,17.58
2023-03-21T10:46:53.465Z,18.15
2023-03-21T10:49:23.466Z,16.73
2023-03-21T10:51:53.382Z,17.63
2023-03-21T10:54:23.279Z,17.73
2023-03-21T10:56:58.785Z,16.85
2023-03-21T10:59:30.136Z,18.13
2023-03-21T11:01:58.211Z,18.13
2023-03-21T11:04:30.834Z,17.40
2023-03-21T11:07:01.297Z,18.55
2023-03-21T11:09:46.033Z,18.52
2023-03-21T11:12:15.924Z,17.92
2023-03-21T11:14:45.620Z,17.30
2023-03-21T11:17:24.860Z,16.75
2023-03-21T11:19:57.891Z,18.00
2023-03-21T11:22:30.265Z,17.02
2023-03-21T11:25:02.651Z,16.45
2023-03-21T11:27:32.418Z,16.75
2023-03-21T11:30:05.090Z,14.40
2023-03-21T11:32:35.891Z,14.25
2023-03-21T11:35:07.783Z,13.65
2023-03-21T11:37:39.730Z,12.93
2023-03-21T11:40:20.522Z,13.05
2023-03-21T11:42:51.870Z,12.23
2023-03-21T11:45:21.780Z,12.35
2023-03-21T11:47:52.233Z,12.80
2023-03-21T11:50:28.174Z,12.45
2023-03-21T11:53:16.913Z,11.70
2023-03-21T11:55:55.334Z,11.45
2023-03-21T11:58:38.910Z,11.07
2023-03-21T12:01:17.602Z,11.25
2023-03-21T12:04:01.227Z,11.07
2023-03-21T12:06:36.116Z,10.32
2023-03-21T12:09:15.636Z,10.55
2023-03-21T12:11:59.174Z,9.43
2023-03-21T12:14:37.982Z,10.68
2023-03-21T12:17:13.815Z,10.60
2023-03-21T12:20:10.762Z,10.38
2023-03-21T12:22:48.451Z,10.82
2023-03-21T12:25:19.538Z,11.00
2023-03-21T12:28:02.791Z,11.73
2023-03-21T12:30:36.524Z,12.93
2023-03-21T12:33:24.060Z,11.15
2023-03-21T12:36:13.054Z,11.20
2023-03-21T12:38:47.886Z,10.93
2023-03-21T12:41:25.533Z,11.13
2023-03-21T12:44:00.618Z,11.70
2023-03-21T12:46:34.562Z,10.75
2023-03-21T12:49:08.913Z,11.15
2023-03-21T12:51:42.219Z,11.75
2023-03-21T12:54:18.940Z,10.75
2023-03-21T12:56:53.991Z,12.00
2023-03-21T12:59:33.347Z,10.68
2023-03-21T13:02:15.450Z,11.13
2023-03-21T13:04:48.554Z,10.70
2023-03-21T13:07:21.000Z,10.55
2023-03-21T13:09:51.308Z,10.93
2023-03-21T13:15:03.514Z,10.93
2023-03-21T13:17:38.079Z,10.63
2023-03-21T13:20:20.193Z,11.60
2023-03-21T13:22:48.174Z,10.52
2023-03-21T13:25:22.907Z,10.15
2023-03-21T13:27:55.761Z,8.68
2023-03-21T13:30:26.484Z,8.85
2023-03-21T13:33:05.691Z,8.75
2023-03-21T13:35:38.382Z,8.52
2023-03-21T13:38:12.881Z,8.93
2023-03-21T13:40:46.358Z,10.32
2023-03-21T13:43:34.832Z,8.25
2023-03-21T13:46:08.693Z,7.80
2023-03-21T13:48:59.092Z,8.18
2023-03-21T13:51:44.217Z,7.55
2023-03-21T13:54:21.840Z,7.57
2023-03-21T13:56:54.136Z,7.47
2023-03-21T13:59:39.377Z,7.45
2023-03-21T14:02:28.537Z,8.02
2023-03-21T14:05:05.449Z,7.55
2023-03-21T14:07:36.654Z,10.43
2023-03-21T14:10:07.917Z,7.80
2023-03-21T14:12:40.706Z,6.90
2023-03-21T14:15:18.840Z,7.35
2023-03-21T14:17:54.818Z,9.98
2023-03-21T14:20:25.593Z,7.20
2023-03-21T14:22:53.791Z,7.70
2023-03-21T14:25:27.225Z,7.28
2023-03-21T14:28:01.271Z,7.75
2023-03-21T14:30:33.265Z,7.90
2023-03-21T14:33:06.864Z,7.43
2023-03-21T14:35:35.222Z,7.43
2023-03-21T14:38:07.441Z,7.32
2023-03-21T14:40:36.211Z,7.10
2023-03-21T14:43:07.503Z,6.43
2023-03-21T14:45:37.362Z,6.15
2023-03-21T14:48:08.514Z,6.32
2023-03-21T14:50:41.885Z,6.65
2023-03-21T14:53:17.186Z,6.18
2023-03-21T14:55:47.336Z,6.95
2023-03-21T14:58:19.189Z,7.63
2023-03-21T15:00:50.474Z,8.00
2023-03-21T15:03:18.973Z,8.40
2023-03-21T15:05:47.508Z,9.48
2023-03-21T15:08:17.079Z,8.30
2023-03-21T15:11:06.335Z,10.48
2023-03-21T15:13:41.280Z,9.45
2023-03-21T15:16:10.842Z,14.60
2023-03-21T15:18:41.128Z,8.82
2023-03-21T15:21:17.192Z,10.02
2023-03-21T15:23:47.437Z,10.02
2023-03-21T15:28:48.673Z,8.80
2023-03-21T15:31:19.635Z,8.02
2023-03-21T15:33:48.726Z,16.98
2023-03-21T15:36:21.859Z,9.15
2023-03-21T15:38:50.387Z,7.80
2023-03-21T15:41:27.698Z,8.13
2023-03-21T15:44:03.299Z,8.85
2023-03-21T15:46:41.639Z,8.25
2023-03-21T15:49:12.300Z,8.15
2023-03-21T15:51:42.709Z,8.60
2023-03-21T15:54:15.193Z,8.57
2023-03-21T15:56:46.076Z,10.15
2023-03-21T15:59:18.106Z,8.35
2023-03-21T16:01:47.662Z,8.60
2023-03-21T16:04:18.389Z,8.68
2023-03-21T16:06:57.884Z,8.05
2023-03-21T16:09:26.356Z,7.93
2023-03-21T16:11:55.439Z,8.35
2023-03-21T16:14:27.784Z,7.28
2023-03-21T16:16:56.243Z,8.27
2023-03-21T16:19:24.895Z,7.43
2023-03-21T16:21:53.326Z,7.38
2023-03-21T16:24:21.056Z,9.27
2023-03-21T16:26:51.720Z,8.68
2023-03-21T16:29:20.700Z,7.15
2023-03-21T16:31:50.018Z,6.35
2023-03-21T16:34:17.878Z,6.83
2023-03-21T16:36:45.816Z,6.40
2023-03-21T16:39:19.839Z,5.90
2023-03-21T16:41:48.333Z,6.38
2023-03-21T16:44:16.616Z,7.00
2023-03-21T16:46:44.541Z,7.28
2023-03-21T16:49:21.842Z,7.72
2023-03-21T16:51:49.677Z,7.32
2023-03-21T16:54:17.961Z,7.80
2023-03-21T16:56:47.659Z,7.85
2023-03-21T16:59:16.220Z,7.32
2023-03-21T17:01:45.946Z,8.32
2023-03-21T17:04:14.766Z,6.75
2023-03-21T17:06:47.331Z,7.32
2023-03-21T17:09:17.054Z,6.53
2023-03-21T17:11:44.817Z,6.63
2023-03-21T17:14:14.280Z,7.97
2023-03-21T17:16:43.049Z,7.25
2023-03-21T17:19:16.144Z,7.32
2023-03-21T17:21:45.610Z,7.35
2023-03-21T17:24:13.671Z,9.13
2023-03-21T17:26:41.494Z,8.60
2023-03-21T17:29:11.958Z,8.05
2023-03-21T17:31:39.832Z,8.20
2023-03-21T17:34:08.522Z,11.63
2023-03-21T17:36:38.134Z,6.72
2023-03-21T17:39:09.447Z,6.93
2023-03-21T17:41:37.332Z,6.45
2023-03-21T17:44:05.360Z,6.07
2023-03-21T17:46:37.462Z,6.03
2023-03-21T17:49:06.145Z,5.93
2023-03-21T17:51:34.075Z,6.80
2023-03-21T17:54:02.430Z,6.50
2023-03-21T17:56:33.407Z,5.78
2023-03-21T17:59:04.205Z,6.20
2023-03-21T18:01:32.924Z,5.47
2023-03-21T18:04:02.739Z,5.25
2023-03-21T18:06:30.744Z,5.03
2023-03-21T18:08:59.677Z,5.45
2023-03-21T18:11:28.500Z,5.70
2023-03-21T18:14:13.846Z,5.25
2023-03-21T18:16:43.895Z,6.10
2023-03-21T18:19:13.165Z,5.65
2023-03-21T18:21:44.795Z,6.20
2023-03-21T18:24:13.035Z,5.45
2023-03-21T18:26:41.209Z,6.85
2023-03-21T18:32:06.822Z,10.00
2023-03-21T18:34:36.258Z,16.20
2023-03-21T18:37:04.530Z,9.75
2023-03-21T18:39:33.006Z,7.78
2023-03-21T18:42:02.486Z,10.10
2023-03-21T18:44:37.299Z,8.10
2023-03-21T18:47:06.513Z,8.05
2023-03-21T18:50:10.449Z,6.40
2023-03-21T18:52:22.906Z,6.80
2023-03-21T18:54:50.778Z,5.05
2023-03-21T18:57:37.422Z,6.25
2023-03-21T19:00:13.056Z,5.95
2023-03-21T19:02:45.999Z,5.68
2023-03-21T19:05:16.001Z,5.90
2023-03-21T19:07:43.853Z,5.28
2023-03-21T19:10:17.972Z,6.45
2023-03-21T19:12:46.751Z,5.10
2023-03-21T19:15:18.683Z,5.68
2023-03-21T19:18:28.573Z,6.28
2023-03-21T19:20:35.122Z,5.95
2023-03-21T19:23:03.307Z,5.78
2023-03-21T19:25:31.265Z,7.65
2023-03-21T19:27:59.038Z,6.32
2023-03-21T19:30:28.282Z,6.95
2023-03-21T19:32:56.257Z,7.68
2023-03-21T19:35:24.156Z,7.45
2023-03-21T19:37:51.998Z,8.85
2023-03-21T19:40:20.632Z,13.52
2023-03-21T19:42:48.490Z,10.30
2023-03-21T19:45:16.309Z,7.00
2023-03-21T19:47:46.240Z,6.95
2023-03-21T19:53:02.013Z,7.60
2023-03-21T19:55:29.973Z,10.90
2023-03-21T19:57:58.063Z,7.72
2023-03-21T20:00:26.016Z,8.77
2023-03-21T20:02:55.461Z,11.27
2023-03-21T20:05:25.612Z,7.53
2023-03-21T20:07:55.376Z,6.47
2023-03-21T20:10:23.472Z,8.70
2023-03-21T20:12:51.391Z,6.93
2023-03-21T20:15:21.620Z,6.43
2023-03-21T20:17:50.397Z,7.82
2023-03-21T20:20:20.293Z,7.15
2023-03-21T20:23:10.745Z,7.05
2023-03-21T20:25:41.403Z,7.97
2023-03-21T20:28:24.711Z,7.18
2023-03-21T20:30:58.545Z,18.50
2023-03-21T20:33:26.989Z,21.13
2023-03-21T20:38:50.918Z,15.77
2023-03-21T20:41:18.965Z,8.57
2023-03-21T20:44:28.468Z,7.55
2023-03-21T20:46:37.108Z,8.20
2023-03-21T20:49:07.666Z,7.88
2023-03-21T20:54:25.728Z,7.65
2023-03-21T20:56:54.020Z,8.10
2023-03-21T20:59:27.198Z,7.28
2023-03-21T21:01:57.449Z,7.90
2023-03-21T21:04:44.122Z,7.63
2023-03-21T21:07:17.307Z,8.10
2023-03-21T21:09:46.476Z,7.15
2023-03-21T21:12:16.409Z,7.60
2023-03-21T21:14:45.422Z,8.63
2023-03-21T21:20:02.393Z,9.73
2023-03-21T21:22:32.533Z,9.60
2023-03-21T21:25:00.587Z,8.63
2023-03-21T21:27:28.522Z,9.75
2023-03-21T21:29:57.532Z,11.43
2023-03-21T21:32:25.526Z,11.38
2023-03-21T21:34:53.567Z,10.85
2023-03-21T21:37:22.520Z,9.98
2023-03-21T21:39:51.729Z,7.35
2023-03-21T21:42:19.820Z,8.65
2023-03-21T21:44:47.943Z,8.57
2023-03-21T21:47:15.804Z,9.85
2023-03-21T21:49:43.942Z,8.52
2023-03-21T21:52:13.687Z,8.57
2023-03-21T21:54:45.588Z,9.48
2023-03-21T21:57:18.962Z,10.30
2023-03-21T21:59:46.814Z,10.15
2023-03-21T22:02:16.906Z,10.43
2023-03-21T22:04:44.805Z,10.95
2023-03-21T22:07:14.610Z,13.25
2023-03-21T22:09:42.786Z,10.27
2023-03-21T22:12:10.777Z,10.75
2023-03-21T22:14:40.969Z,11.50
2023-03-21T22:19:37.837Z,12.88
2023-03-21T22:22:07.685Z,13.73
2023-03-21T22:24:35.768Z,11.20
2023-03-21T22:27:03.775Z,10.70
2023-03-21T22:29:31.583Z,11.35
2023-03-21T22:32:00.891Z,12.00
2023-03-21T22:34:28.745Z,11.55
2023-03-21T22:36:57.705Z,11.63
2023-03-21T22:39:26.388Z,11.15
2023-03-21T22:41:55.136Z,11.40
2023-03-21T22:44:23.010Z,10.43
2023-03-21T22:46:50.830Z,11.52
2023-03-21T22:49:20.238Z,10.93
2023-03-21T22:51:48.017Z,12.13
2023-03-21T22:54:15.922Z,13.93
2023-03-21T22:56:43.687Z,13.13
2023-03-21T22:59:11.499Z,12.60
2023-03-21T23:01:39.953Z,12.60
2023-03-21T23:04:07.943Z,13.85
2023-03-21T23:06:37.392Z,14.18
2023-03-21T23:09:05.335Z,14.10
2023-03-21T23:11:33.166Z,14.88
2023-03-21T23:14:07.810Z,14.45
2023-03-21T23:16:38.328Z,14.65
2023-03-21T23:21:38.321Z,13.75
2023-03-21T23:24:07.147Z,14.35
2023-03-21T23:26:35.778Z,13.10
2023-03-21T23:29:04.376Z,14.32
2023-03-21T23:31:33.018Z,13.43
2023-03-21T23:34:01.870Z,12.85
2023-03-21T23:36:30.400Z,10.85
2023-03-21T23:38:59.562Z,11.57
2023-03-21T23:41:27.394Z,11.07
2023-03-21T23:43:55.262Z,10.95
2023-03-21T23:46:23.165Z,14.73
2023-03-21T23:48:51.193Z,14.38
2023-03-21T23:51:19.379Z,12.52
2023-03-21T23:53:47.602Z,11.93
2023-03-21T23:56:19.549Z,12.10
2023-03-21T23:58:48.130Z,11.70
